sensor_id;sensor_type;location;lat;lon;timestamp;P1;durP1;ratioP1;P2;durP2;ratioP2
10170;SDS011;5127;50.922;6.988;2023-02-18T00:00:04;5.27;;;4.77;;
10170;SDS011;5127;50.922;6.988;2023-02-18T00:02:34;4.87;;;4.37;;
10170;SDS011;5127;50.922;6.988;2023-02-18T00:05:03;5.17;;;4.57;;
10170;SDS011;5127;50.922;6.988;2023-02-18T00:07:32;4.60;;;4.20;;
10170;SDS011;5127;50.922;6.988;2023-02-18T00:10:00;4.47;;;4.07;;
10170;SDS011;5127;50.922;6.988;2023-02-18T00:12:27;4.60;;;4.20;;
10170;SDS011;5127;50.922;6.988;2023-02-18T00:14:56;4.77;;;4.37;;
10170;SDS011;5127;50.922;6.988;2023-02-18T00:17:23;4.97;;;4.57;;
10170;SDS011;5127;50.922;6.988;2023-02-18T00:19:51;5.50;;;4.80;;
10170;SDS011;5127;50.922;6.988;2023-02-18T00:22:19;4.97;;;4.47;;
10170;SDS011;5127;50.922;6.988;2023-02-18T00:24:46;4.33;;;4.03;;
10170;SDS011;5127;50.922;6.988;2023-02-18T00:27:14;5.43;;;4.20;;
10170;SDS011;5127;50.922;6.988;2023-02-18T00:29:41;5.03;;;4.63;;
10170;SDS011;5127;50.922;6.988;2023-02-18T00:32:09;5.00;;;4.60;;
10170;SDS011;5127;50.922;6.988;2023-02-18T00:34:36;4.53;;;4.13;;
10170;SDS011;5127;50.922;6.988;2023-02-18T00:37:03;5.00;;;4.50;;
10170;SDS011;5127;50.922;6.988;2023-02-18T00:39:32;4.50;;;4.10;;
10170;SDS011;5127;50.922;6.988;2023-02-18T00:41:59;4.13;;;3.73;;
10170;SDS011;5127;50.922;6.988;2023-02-18T00:44:26;4.93;;;3.97;;
10170;SDS011;5127;50.922;6.988;2023-02-18T00:46:56;4.67;;;4.27;;
10170;SDS011;5127;50.922;6.988;2023-02-18T00:49:23;4.50;;;4.13;;
10170;SDS011;5127;50.922;6.988;2023-02-18T00:51:50;5.20;;;4.70;;
10170;SDS011;5127;50.922;6.988;2023-02-18T00:54:17;5.10;;;4.60;;
10170;SDS011;5127;50.922;6.988;2023-02-18T00:56:46;4.40;;;4.00;;
10170;SDS011;5127;50.922;6.988;2023-02-18T00:59:13;4.47;;;4.07;;
10170;SDS011;5127;50.922;6.988;2023-02-18T01:01:41;4.97;;;4.50;;
10170;SDS011;5127;50.922;6.988;2023-02-18T01:04:08;4.27;;;3.87;;
10170;SDS011;5127;50.922;6.988;2023-02-18T01:06:35;4.50;;;4.10;;
10170;SDS011;5127;50.922;6.988;2023-02-18T01:09:03;4.27;;;3.87;;
10170;SDS011;5127;50.922;6.988;2023-02-18T01:11:30;4.60;;;4.20;;
10170;SDS011;5127;50.922;6.988;2023-02-18T01:13:59;4.63;;;3.83;;
10170;SDS011;5127;50.922;6.988;2023-02-18T01:16:28;4.53;;;4.13;;
10170;SDS011;5127;50.922;6.988;2023-02-18T01:18:56;4.77;;;4.33;;
10170;SDS011;5127;50.922;6.988;2023-02-18T01:21:25;4.40;;;4.00;;
10170;SDS011;5127;50.922;6.988;2023-02-18T01:23:52;4.50;;;4.10;;
10170;SDS011;5127;50.922;6.988;2023-02-18T01:26:19;4.20;;;3.80;;
10170;SDS011;5127;50.922;6.988;2023-02-18T01:28:47;4.23;;;3.83;;
10170;SDS011;5127;50.922;6.988;2023-02-18T01:31:15;4.00;;;3.70;;
10170;SDS011;5127;50.922;6.988;2023-02-18T01:33:43;4.17;;;3.77;;
10170;SDS011;5127;50.922;6.988;2023-02-18T01:36:10;3.77;;;3.47;;
10170;SDS011;5127;50.922;6.988;2023-02-18T01:38:38;3.77;;;3.47;;
10170;SDS011;5127;50.922;6.988;2023-02-18T01:41:05;4.23;;;3.90;;
10170;SDS011;5127;50.922;6.988;2023-02-18T01:43:33;4.23;;;3.83;;
10170;SDS011;5127;50.922;6.988;2023-02-18T01:46:06;4.30;;;3.90;;
10170;SDS011;5127;50.922;6.988;2023-02-18T01:48:40;3.80;;;3.50;;
10170;SDS011;5127;50.922;6.988;2023-02-18T01:51:11;3.77;;;3.47;;
10170;SDS011;5127;50.922;6.988;2023-02-18T01:53:43;3.93;;;3.63;;
10170;SDS011;5127;50.922;6.988;2023-02-18T01:56:17;4.17;;;3.77;;
10170;SDS011;5127;50.922;6.988;2023-02-18T01:58:49;3.70;;;3.40;;
10170;SDS011;5127;50.922;6.988;2023-02-18T02:01:19;4.03;;;3.73;;
10170;SDS011;5127;50.922;6.988;2023-02-18T02:03:48;4.53;;;4.13;;
10170;SDS011;5127;50.922;6.988;2023-02-18T02:06:16;4.03;;;3.73;;
10170;SDS011;5127;50.922;6.988;2023-02-18T02:08:49;4.20;;;3.90;;
10170;SDS011;5127;50.922;6.988;2023-02-18T02:11:21;4.47;;;4.07;;
10170;SDS011;5127;50.922;6.988;2023-02-18T02:14:01;4.27;;;3.90;;
10170;SDS011;5127;50.922;6.988;2023-02-18T02:16:41;4.20;;;3.90;;
10170;SDS011;5127;50.922;6.988;2023-02-18T02:19:34;3.70;;;3.40;;
10170;SDS011;5127;50.922;6.988;2023-02-18T02:22:24;4.00;;;3.70;;
10170;SDS011;5127;50.922;6.988;2023-02-18T02:25:11;3.70;;;3.40;;
10170;SDS011;5127;50.922;6.988;2023-02-18T02:27:52;3.33;;;3.13;;
10170;SDS011;5127;50.922;6.988;2023-02-18T02:30:43;3.83;;;3.43;;
10170;SDS011;5127;50.922;6.988;2023-02-18T02:36:45;3.10;;;2.80;;
10170;SDS011;5127;50.922;6.988;2023-02-18T02:39:19;3.50;;;3.20;;
10170;SDS011;5127;50.922;6.988;2023-02-18T02:41:53;3.93;;;3.33;;
10170;SDS011;5127;50.922;6.988;2023-02-18T02:44:30;3.50;;;3.20;;
10170;SDS011;5127;50.922;6.988;2023-02-18T02:47:07;3.33;;;3.07;;
10170;SDS011;5127;50.922;6.988;2023-02-18T02:49:40;3.20;;;2.87;;
10170;SDS011;5127;50.922;6.988;2023-02-18T02:52:16;3.87;;;3.10;;
10170;SDS011;5127;50.922;6.988;2023-02-18T02:54:48;3.30;;;3.00;;
10170;SDS011;5127;50.922;6.988;2023-02-18T03:00:16;2.87;;;2.67;;
10170;SDS011;5127;50.922;6.988;2023-02-18T03:02:54;2.47;;;2.37;;
10170;SDS011;5127;50.922;6.988;2023-02-18T03:05:35;2.43;;;2.23;;
10170;SDS011;5127;50.922;6.988;2023-02-18T03:08:14;2.20;;;2.10;;
10170;SDS011;5127;50.922;6.988;2023-02-18T03:10:56;2.37;;;2.17;;
10170;SDS011;5127;50.922;6.988;2023-02-18T03:13:32;2.00;;;1.90;;
10170;SDS011;5127;50.922;6.988;2023-02-18T03:16:25;2.20;;;2.10;;
10170;SDS011;5127;50.922;6.988;2023-02-18T03:18:58;1.90;;;1.80;;
10170;SDS011;5127;50.922;6.988;2023-02-18T03:21:32;1.87;;;1.77;;
10170;SDS011;5127;50.922;6.988;2023-02-18T03:24:07;2.00;;;1.90;;
10170;SDS011;5127;50.922;6.988;2023-02-18T03:26:40;1.57;;;1.47;;
10170;SDS011;5127;50.922;6.988;2023-02-18T03:29:13;1.73;;;1.60;;
10170;SDS011;5127;50.922;6.988;2023-02-18T03:31:43;1.60;;;1.50;;
10170;SDS011;5127;50.922;6.988;2023-02-18T03:34:15;2.30;;;1.20;;
10170;SDS011;5127;50.922;6.988;2023-02-18T03:36:45;1.33;;;1.30;;
10170;SDS011;5127;50.922;6.988;2023-02-18T03:39:15;1.33;;;1.10;;
10170;SDS011;5127;50.922;6.988;2023-02-18T03:41:44;0.90;;;0.90;;
10170;SDS011;5127;50.922;6.988;2023-02-18T03:44:12;0.83;;;0.83;;
10170;SDS011;5127;50.922;6.988;2023-02-18T03:46:41;0.70;;;0.70;;
10170;SDS011;5127;50.922;6.988;2023-02-18T03:49:10;1.30;;;0.80;;
10170;SDS011;5127;50.922;6.988;2023-02-18T03:51:38;0.60;;;0.60;;
10170;SDS011;5127;50.922;6.988;2023-02-18T03:54:06;0.83;;;0.70;;
10170;SDS011;5127;50.922;6.988;2023-02-18T03:56:35;0.60;;;0.60;;
10170;SDS011;5127;50.922;6.988;2023-02-18T03:59:03;0.60;;;0.57;;
10170;SDS011;5127;50.922;6.988;2023-02-18T04:01:30;0.60;;;0.60;;
10170;SDS011;5127;50.922;6.988;2023-02-18T04:03:57;0.63;;;0.63;;
10170;SDS011;5127;50.922;6.988;2023-02-18T04:06:25;0.70;;;0.70;;
10170;SDS011;5127;50.922;6.988;2023-02-18T04:08:52;0.53;;;0.53;;
10170;SDS011;5127;50.922;6.988;2023-02-18T04:11:19;1.50;;;0.60;;
10170;SDS011;5127;50.922;6.988;2023-02-18T04:13:48;0.40;;;0.40;;
10170;SDS011;5127;50.922;6.988;2023-02-18T04:16:15;0.40;;;0.40;;
10170;SDS011;5127;50.922;6.988;2023-02-18T04:18:42;0.30;;;0.30;;
10170;SDS011;5127;50.922;6.988;2023-02-18T04:21:10;0.90;;;0.30;;
10170;SDS011;5127;50.922;6.988;2023-02-18T04:23:37;0.40;;;0.40;;
10170;SDS011;5127;50.922;6.988;2023-02-18T04:26:04;0.20;;;0.20;;
10170;SDS011;5127;50.922;6.988;2023-02-18T04:28:31;0.30;;;0.30;;
10170;SDS011;5127;50.922;6.988;2023-02-18T04:31:00;0.67;;;0.40;;
10170;SDS011;5127;50.922;6.988;2023-02-18T04:33:27;0.27;;;0.27;;
10170;SDS011;5127;50.922;6.988;2023-02-18T04:35:54;0.10;;;0.10;;
10170;SDS011;5127;50.922;6.988;2023-02-18T04:38:22;0.23;;;0.20;;
10170;SDS011;5127;50.922;6.988;2023-02-18T04:40:49;0.77;;;0.20;;
10170;SDS011;5127;50.922;6.988;2023-02-18T04:43:16;0.30;;;0.30;;
10170;SDS011;5127;50.922;6.988;2023-02-18T04:45:43;0.20;;;0.20;;
10170;SDS011;5127;50.922;6.988;2023-02-18T04:48:12;0.10;;;0.10;;
10170;SDS011;5127;50.922;6.988;2023-02-18T04:50:39;0.17;;;0.17;;
10170;SDS011;5127;50.922;6.988;2023-02-18T04:53:07;0.47;;;0.10;;
10170;SDS011;5127;50.922;6.988;2023-02-18T04:55:34;0.53;;;0.20;;
10170;SDS011;5127;50.922;6.988;2023-02-18T04:58:01;0.10;;;0.10;;
10170;SDS011;5127;50.922;6.988;2023-02-18T05:00:29;0.10;;;0.10;;
10170;SDS011;5127;50.922;6.988;2023-02-18T05:02:56;0.23;;;0.20;;
10170;SDS011;5127;50.922;6.988;2023-02-18T05:05:24;0.40;;;0.20;;
10170;SDS011;5127;50.922;6.988;2023-02-18T05:07:51;0.40;;;0.30;;
10170;SDS011;5127;50.922;6.988;2023-02-18T05:10:19;1.40;;;0.40;;
10170;SDS011;5127;50.922;6.988;2023-02-18T05:12:46;0.53;;;0.43;;
10170;SDS011;5127;50.922;6.988;2023-02-18T05:15:13;0.40;;;0.40;;
10170;SDS011;5127;50.922;6.988;2023-02-18T05:17:40;1.20;;;0.70;;
10170;SDS011;5127;50.922;6.988;2023-02-18T05:20:08;0.40;;;0.40;;
10170;SDS011;5127;50.922;6.988;2023-02-18T05:22:37;0.40;;;0.40;;
10170;SDS011;5127;50.922;6.988;2023-02-18T05:25:05;0.47;;;0.47;;
10170;SDS011;5127;50.922;6.988;2023-02-18T05:27:32;1.63;;;0.50;;
10170;SDS011;5127;50.922;6.988;2023-02-18T05:29:59;0.80;;;0.60;;
10170;SDS011;5127;50.922;6.988;2023-02-18T05:32:27;0.57;;;0.57;;
10170;SDS011;5127;50.922;6.988;2023-02-18T05:34:54;0.50;;;0.50;;
10170;SDS011;5127;50.922;6.988;2023-02-18T05:37:21;0.57;;;0.40;;
10170;SDS011;5127;50.922;6.988;2023-02-18T05:39:50;0.60;;;0.60;;
10170;SDS011;5127;50.922;6.988;2023-02-18T05:42:17;0.50;;;0.50;;
10170;SDS011;5127;50.922;6.988;2023-02-18T05:44:45;0.67;;;0.67;;
10170;SDS011;5127;50.922;6.988;2023-02-18T05:47:12;1.10;;;0.80;;
10170;SDS011;5127;50.922;6.988;2023-02-18T05:49:40;0.97;;;0.50;;
10170;SDS011;5127;50.922;6.988;2023-02-18T05:52:08;0.80;;;0.53;;
10170;SDS011;5127;50.922;6.988;2023-02-18T05:54:37;0.43;;;0.43;;
10170;SDS011;5127;50.922;6.988;2023-02-18T05:57:05;0.43;;;0.30;;
10170;SDS011;5127;50.922;6.988;2023-02-18T05:59:33;0.67;;;0.20;;
10170;SDS011;5127;50.922;6.988;2023-02-18T06:02:00;0.30;;;0.30;;
10170;SDS011;5127;50.922;6.988;2023-02-18T06:04:27;0.73;;;0.30;;
10170;SDS011;5127;50.922;6.988;2023-02-18T06:06:55;0.50;;;0.20;;
10170;SDS011;5127;50.922;6.988;2023-02-18T06:09:22;0.47;;;0.30;;
10170;SDS011;5127;50.922;6.988;2023-02-18T06:11:49;0.63;;;0.40;;
10170;SDS011;5127;50.922;6.988;2023-02-18T06:14:18;0.30;;;0.30;;
10170;SDS011;5127;50.922;6.988;2023-02-18T06:16:46;0.30;;;0.30;;
10170;SDS011;5127;50.922;6.988;2023-02-18T06:19:13;0.30;;;0.20;;
10170;SDS011;5127;50.922;6.988;2023-02-18T06:21:40;0.20;;;0.20;;
10170;SDS011;5127;50.922;6.988;2023-02-18T06:24:07;0.30;;;0.30;;
10170;SDS011;5127;50.922;6.988;2023-02-18T06:26:35;0.30;;;0.30;;
10170;SDS011;5127;50.922;6.988;2023-02-18T06:29:02;0.40;;;0.40;;
10170;SDS011;5127;50.922;6.988;2023-02-18T06:31:31;0.27;;;0.27;;
10170;SDS011;5127;50.922;6.988;2023-02-18T06:33:58;0.27;;;0.27;;
10170;SDS011;5127;50.922;6.988;2023-02-18T06:36:25;0.30;;;0.20;;
10170;SDS011;5127;50.922;6.988;2023-02-18T06:38:53;0.20;;;0.20;;
10170;SDS011;5127;50.922;6.988;2023-02-18T06:41:22;0.20;;;0.20;;
10170;SDS011;5127;50.922;6.988;2023-02-18T06:43:49;0.10;;;0.10;;
10170;SDS011;5127;50.922;6.988;2023-02-18T06:46:17;0.20;;;0.20;;
10170;SDS011;5127;50.922;6.988;2023-02-18T06:48:45;0.40;;;0.10;;
10170;SDS011;5127;50.922;6.988;2023-02-18T06:51:13;0.10;;;0.10;;
10170;SDS011;5127;50.922;6.988;2023-02-18T06:53:41;0.10;;;0.10;;
10170;SDS011;5127;50.922;6.988;2023-02-18T06:56:09;0.27;;;0.20;;
10170;SDS011;5127;50.922;6.988;2023-02-18T06:58:36;0.13;;;0.13;;
10170;SDS011;5127;50.922;6.988;2023-02-18T07:01:04;0.10;;;0.10;;
10170;SDS011;5127;50.922;6.988;2023-02-18T07:03:31;1.50;;;0.20;;
10170;SDS011;5127;50.922;6.988;2023-02-18T07:06:00;0.13;;;0.00;;
10170;SDS011;5127;50.922;6.988;2023-02-18T07:08:27;0.10;;;0.10;;
10170;SDS011;5127;50.922;6.988;2023-02-18T07:10:55;0.00;;;0.00;;
10170;SDS011;5127;50.922;6.988;2023-02-18T07:13:22;0.10;;;0.10;;
10170;SDS011;5127;50.922;6.988;2023-02-18T07:15:49;0.10;;;0.10;;
10170;SDS011;5127;50.922;6.988;2023-02-18T07:18:17;0.10;;;0.10;;
10170;SDS011;5127;50.922;6.988;2023-02-18T07:20:44;0.13;;;0.13;;
10170;SDS011;5127;50.922;6.988;2023-02-18T07:23:13;0.30;;;0.10;;
10170;SDS011;5127;50.922;6.988;2023-02-18T07:25:40;0.10;;;0.10;;
10170;SDS011;5127;50.922;6.988;2023-02-18T07:28:07;0.20;;;0.20;;
10170;SDS011;5127;50.922;6.988;2023-02-18T07:30:34;0.23;;;0.23;;
10170;SDS011;5127;50.922;6.988;2023-02-18T07:33:02;0.20;;;0.20;;
10170;SDS011;5127;50.922;6.988;2023-02-18T07:35:29;0.20;;;0.20;;
10170;SDS011;5127;50.922;6.988;2023-02-18T07:37:57;0.30;;;0.30;;
10170;SDS011;5127;50.922;6.988;2023-02-18T07:40:25;0.30;;;0.30;;
10170;SDS011;5127;50.922;6.988;2023-02-18T07:42:53;0.27;;;0.20;;
10170;SDS011;5127;50.922;6.988;2023-02-18T07:45:20;0.20;;;0.20;;
10170;SDS011;5127;50.922;6.988;2023-02-18T07:47:47;0.20;;;0.20;;
10170;SDS011;5127;50.922;6.988;2023-02-18T07:50:15;0.20;;;0.20;;
10170;SDS011;5127;50.922;6.988;2023-02-18T07:52:42;0.30;;;0.30;;
10170;SDS011;5127;50.922;6.988;2023-02-18T07:55:09;0.50;;;0.50;;
10170;SDS011;5127;50.922;6.988;2023-02-18T07:57:38;0.70;;;0.70;;
10170;SDS011;5127;50.922;6.988;2023-02-18T08:00:19;0.80;;;0.80;;
10170;SDS011;5127;50.922;6.988;2023-02-18T08:02:46;0.70;;;0.70;;
10170;SDS011;5127;50.922;6.988;2023-02-18T08:05:14;0.60;;;0.60;;
10170;SDS011;5127;50.922;6.988;2023-02-18T08:07:41;0.60;;;0.60;;
10170;SDS011;5127;50.922;6.988;2023-02-18T08:10:08;0.60;;;0.60;;
10170;SDS011;5127;50.922;6.988;2023-02-18T08:12:36;0.50;;;0.50;;
10170;SDS011;5127;50.922;6.988;2023-02-18T08:15:04;2.77;;;0.87;;
10170;SDS011;5127;50.922;6.988;2023-02-18T08:17:32;0.50;;;0.50;;
10170;SDS011;5127;50.922;6.988;2023-02-18T08:19:59;0.60;;;0.47;;
10170;SDS011;5127;50.922;6.988;2023-02-18T08:22:26;0.30;;;0.30;;
10170;SDS011;5127;50.922;6.988;2023-02-18T08:24:54;2.00;;;0.60;;
10170;SDS011;5127;50.922;6.988;2023-02-18T08:27:21;0.80;;;0.80;;
10170;SDS011;5127;50.922;6.988;2023-02-18T08:29:49;2.70;;;0.83;;
10170;SDS011;5127;50.922;6.988;2023-02-18T08:32:18;1.50;;;1.00;;
10170;SDS011;5127;50.922;6.988;2023-02-18T08:34:45;1.80;;;1.20;;
10170;SDS011;5127;50.922;6.988;2023-02-18T08:37:12;2.60;;;0.97;;
10170;SDS011;5127;50.922;6.988;2023-02-18T08:39:40;3.13;;;1.10;;
10170;SDS011;5127;50.922;6.988;2023-02-18T08:42:07;2.20;;;1.17;;
10170;SDS011;5127;50.922;6.988;2023-02-18T08:44:34;2.60;;;1.30;;
10170;SDS011;5127;50.922;6.988;2023-02-18T08:47:01;3.00;;;1.27;;
10170;SDS011;5127;50.922;6.988;2023-02-18T08:49:30;3.33;;;1.43;;
10170;SDS011;5127;50.922;6.988;2023-02-18T08:51:57;2.10;;;1.53;;
10170;SDS011;5127;50.922;6.988;2023-02-18T08:54:25;2.93;;;1.40;;
10170;SDS011;5127;50.922;6.988;2023-02-18T08:56:53;5.20;;;1.40;;
10170;SDS011;5127;50.922;6.988;2023-02-18T08:59:20;2.63;;;1.40;;
10170;SDS011;5127;50.922;6.988;2023-02-18T09:01:47;4.77;;;1.40;;
10170;SDS011;5127;50.922;6.988;2023-02-18T09:04:15;4.87;;;1.13;;
10170;SDS011;5127;50.922;6.988;2023-02-18T09:06:43;3.43;;;1.33;;
10170;SDS011;5127;50.922;6.988;2023-02-18T09:09:11;2.57;;;1.13;;
10170;SDS011;5127;50.922;6.988;2023-02-18T09:11:39;1.77;;;1.30;;
10170;SDS011;5127;50.922;6.988;2023-02-18T09:14:06;3.70;;;1.37;;
10170;SDS011;5127;50.922;6.988;2023-02-18T09:16:33;4.77;;;1.33;;
10170;SDS011;5127;50.922;6.988;2023-02-18T09:19:03;3.27;;;1.50;;
10170;SDS011;5127;50.922;6.988;2023-02-18T09:21:31;3.13;;;1.20;;
10170;SDS011;5127;50.922;6.988;2023-02-18T09:24:00;3.20;;;1.30;;
10170;SDS011;5127;50.922;6.988;2023-02-18T09:26:27;2.40;;;1.10;;
10170;SDS011;5127;50.922;6.988;2023-02-18T09:28:55;2.83;;;1.50;;
10170;SDS011;5127;50.922;6.988;2023-02-18T09:31:23;5.57;;;1.50;;
10170;SDS011;5127;50.922;6.988;2023-02-18T09:33:52;1.40;;;1.10;;
10170;SDS011;5127;50.922;6.988;2023-02-18T09:36:20;2.60;;;1.20;;
10170;SDS011;5127;50.922;6.988;2023-02-18T09:38:48;3.47;;;1.30;;
10170;SDS011;5127;50.922;6.988;2023-02-18T09:41:19;4.93;;;1.20;;
10170;SDS011;5127;50.922;6.988;2023-02-18T09:43:56;2.83;;;1.10;;
10170;SDS011;5127;50.922;6.988;2023-02-18T09:46:27;2.20;;;1.20;;
10170;SDS011;5127;50.922;6.988;2023-02-18T09:48:59;3.07;;;1.20;;
10170;SDS011;5127;50.922;6.988;2023-02-18T09:51:28;3.00;;;1.17;;
10170;SDS011;5127;50.922;6.988;2023-02-18T09:53:55;5.53;;;1.50;;
10170;SDS011;5127;50.922;6.988;2023-02-18T09:56:26;2.87;;;1.00;;
10170;SDS011;5127;50.922;6.988;2023-02-18T09:58:56;3.90;;;1.30;;
10170;SDS011;5127;50.922;6.988;2023-02-18T10:01:27;2.60;;;1.20;;
10170;SDS011;5127;50.922;6.988;2023-02-18T10:03:57;4.47;;;1.30;;
10170;SDS011;5127;50.922;6.988;2023-02-18T10:06:29;3.37;;;1.10;;
10170;SDS011;5127;50.922;6.988;2023-02-18T10:08:59;4.20;;;1.50;;
10170;SDS011;5127;50.922;6.988;2023-02-18T10:11:30;5.07;;;1.80;;
10170;SDS011;5127;50.922;6.988;2023-02-18T10:14:02;6.30;;;1.37;;
10170;SDS011;5127;50.922;6.988;2023-02-18T10:16:34;4.13;;;1.50;;
10170;SDS011;5127;50.922;6.988;2023-02-18T10:19:03;2.90;;;1.30;;
10170;SDS011;5127;50.922;6.988;2023-02-18T10:21:38;4.23;;;1.33;;
10170;SDS011;5127;50.922;6.988;2023-02-18T10:24:09;3.97;;;1.10;;
10170;SDS011;5127;50.922;6.988;2023-02-18T10:26:47;2.33;;;1.00;;
10170;SDS011;5127;50.922;6.988;2023-02-18T10:29:15;2.17;;;1.20;;
10170;SDS011;5127;50.922;6.988;2023-02-18T10:31:44;1.47;;;0.97;;
10170;SDS011;5127;50.922;6.988;2023-02-18T10:34:16;1.57;;;1.10;;
10170;SDS011;5127;50.922;6.988;2023-02-18T10:36:50;3.40;;;1.10;;
10170;SDS011;5127;50.922;6.988;2023-02-18T10:39:29;3.53;;;1.27;;
10170;SDS011;5127;50.922;6.988;2023-02-18T10:42:15;2.57;;;1.20;;
10170;SDS011;5127;50.922;6.988;2023-02-18T10:44:52;3.13;;;1.30;;
10170;SDS011;5127;50.922;6.988;2023-02-18T10:47:28;3.80;;;1.33;;
10170;SDS011;5127;50.922;6.988;2023-02-18T10:50:07;1.63;;;1.27;;
10170;SDS011;5127;50.922;6.988;2023-02-18T10:52:37;2.67;;;1.30;;
10170;SDS011;5127;50.922;6.988;2023-02-18T10:55:08;1.80;;;1.07;;
10170;SDS011;5127;50.922;6.988;2023-02-18T10:57:45;4.23;;;1.40;;
10170;SDS011;5127;50.922;6.988;2023-02-18T11:00:17;5.27;;;1.30;;
10170;SDS011;5127;50.922;6.988;2023-02-18T11:02:59;3.20;;;1.40;;
10170;SDS011;5127;50.922;6.988;2023-02-18T11:05:33;2.37;;;1.20;;
10170;SDS011;5127;50.922;6.988;2023-02-18T11:08:02;5.00;;;1.60;;
10170;SDS011;5127;50.922;6.988;2023-02-18T11:10:34;3.10;;;1.30;;
10170;SDS011;5127;50.922;6.988;2023-02-18T11:13:07;3.10;;;1.33;;
10170;SDS011;5127;50.922;6.988;2023-02-18T11:15:36;2.70;;;1.40;;
10170;SDS011;5127;50.922;6.988;2023-02-18T11:18:19;1.70;;;1.30;;
10170;SDS011;5127;50.922;6.988;2023-02-18T11:21:02;2.40;;;1.40;;
10170;SDS011;5127;50.922;6.988;2023-02-18T11:23:32;2.40;;;1.47;;
10170;SDS011;5127;50.922;6.988;2023-02-18T11:26:13;2.03;;;1.30;;
10170;SDS011;5127;50.922;6.988;2023-02-18T11:28:45;1.47;;;1.20;;
10170;SDS011;5127;50.922;6.988;2023-02-18T11:31:18;2.20;;;1.30;;
10170;SDS011;5127;50.922;6.988;2023-02-18T11:33:49;1.73;;;1.13;;
10170;SDS011;5127;50.922;6.988;2023-02-18T11:36:21;1.93;;;1.20;;
10170;SDS011;5127;50.922;6.988;2023-02-18T11:38:51;1.77;;;0.90;;
10170;SDS011;5127;50.922;6.988;2023-02-18T11:41:21;2.43;;;1.00;;
10170;SDS011;5127;50.922;6.988;2023-02-18T11:43:58;1.17;;;0.87;;
10170;SDS011;5127;50.922;6.988;2023-02-18T11:46:27;1.13;;;0.93;;
10170;SDS011;5127;50.922;6.988;2023-02-18T11:48:54;2.30;;;0.73;;
10170;SDS011;5127;50.922;6.988;2023-02-18T11:51:23;1.33;;;0.90;;
10170;SDS011;5127;50.922;6.988;2023-02-18T11:53:53;1.70;;;0.90;;
10170;SDS011;5127;50.922;6.988;2023-02-18T11:56:27;1.53;;;0.70;;
10170;SDS011;5127;50.922;6.988;2023-02-18T11:58:56;1.67;;;0.90;;
10170;SDS011;5127;50.922;6.988;2023-02-18T12:01:29;1.07;;;0.80;;
10170;SDS011;5127;50.922;6.988;2023-02-18T12:04:06;2.93;;;1.30;;
10170;SDS011;5127;50.922;6.988;2023-02-18T12:06:37;1.17;;;1.07;;
10170;SDS011;5127;50.922;6.988;2023-02-18T12:09:13;1.10;;;1.00;;
10170;SDS011;5127;50.922;6.988;2023-02-18T12:11:47;2.13;;;1.10;;
10170;SDS011;5127;50.922;6.988;2023-02-18T12:14:17;1.60;;;1.13;;
10170;SDS011;5127;50.922;6.988;2023-02-18T12:16:51;1.00;;;0.83;;
10170;SDS011;5127;50.922;6.988;2023-02-18T12:19:41;2.50;;;0.93;;
10170;SDS011;5127;50.922;6.988;2023-02-18T12:22:21;1.00;;;0.90;;
10170;SDS011;5127;50.922;6.988;2023-02-18T12:25:02;0.80;;;0.73;;
10170;SDS011;5127;50.922;6.988;2023-02-18T12:27:42;0.87;;;0.80;;
10170;SDS011;5127;50.922;6.988;2023-02-18T12:30:31;0.80;;;0.80;;
10170;SDS011;5127;50.922;6.988;2023-02-18T12:33:20;1.23;;;1.00;;
10170;SDS011;5127;50.922;6.988;2023-02-18T12:35:57;1.30;;;1.20;;
10170;SDS011;5127;50.922;6.988;2023-02-18T12:38:40;1.50;;;1.20;;
10170;SDS011;5127;50.922;6.988;2023-02-18T12:41:23;0.80;;;0.80;;
10170;SDS011;5127;50.922;6.988;2023-02-18T12:44:03;1.33;;;1.10;;
10170;SDS011;5127;50.922;6.988;2023-02-18T12:46:47;2.60;;;1.10;;
10170;SDS011;5127;50.922;6.988;2023-02-18T12:49:32;1.17;;;1.03;;
10170;SDS011;5127;50.922;6.988;2023-02-18T12:52:21;1.60;;;1.33;;
10170;SDS011;5127;50.922;6.988;2023-02-18T12:55:17;1.70;;;1.50;;
10170;SDS011;5127;50.922;6.988;2023-02-18T12:58:02;2.10;;;1.40;;
10170;SDS011;5127;50.922;6.988;2023-02-18T13:00:37;1.97;;;1.27;;
10170;SDS011;5127;50.922;6.988;2023-02-18T13:03:29;2.00;;;1.20;;
10170;SDS011;5127;50.922;6.988;2023-02-18T13:06:12;1.67;;;1.30;;
10170;SDS011;5127;50.922;6.988;2023-02-18T13:08:51;2.00;;;1.37;;
10170;SDS011;5127;50.922;6.988;2023-02-18T13:11:28;1.63;;;1.20;;
10170;SDS011;5127;50.922;6.988;2023-02-18T13:14:09;1.80;;;1.43;;
10170;SDS011;5127;50.922;6.988;2023-02-18T13:16:42;1.97;;;1.20;;
10170;SDS011;5127;50.922;6.988;2023-02-18T13:19:14;1.37;;;1.10;;
10170;SDS011;5127;50.922;6.988;2023-02-18T13:21:47;1.40;;;1.30;;
10170;SDS011;5127;50.922;6.988;2023-02-18T13:24:20;3.43;;;1.40;;
10170;SDS011;5127;50.922;6.988;2023-02-18T13:26:55;3.53;;;1.43;;
10170;SDS011;5127;50.922;6.988;2023-02-18T13:29:29;2.73;;;1.40;;
10170;SDS011;5127;50.922;6.988;2023-02-18T13:32:03;2.70;;;1.73;;
10170;SDS011;5127;50.922;6.988;2023-02-18T13:34:39;2.00;;;1.20;;
10170;SDS011;5127;50.922;6.988;2023-02-18T13:37:17;2.20;;;1.40;;
10170;SDS011;5127;50.922;6.988;2023-02-18T13:39:49;2.43;;;1.63;;
10170;SDS011;5127;50.922;6.988;2023-02-18T13:42:32;1.47;;;1.37;;
10170;SDS011;5127;50.922;6.988;2023-02-18T13:45:05;1.60;;;1.50;;
10170;SDS011;5127;50.922;6.988;2023-02-18T13:47:48;2.80;;;1.60;;
10170;SDS011;5127;50.922;6.988;2023-02-18T13:50:22;2.13;;;1.33;;
10170;SDS011;5127;50.922;6.988;2023-02-18T13:52:58;2.07;;;1.63;;
10170;SDS011;5127;50.922;6.988;2023-02-18T13:55:40;2.70;;;1.40;;
10170;SDS011;5127;50.922;6.988;2023-02-18T13:58:13;3.03;;;1.43;;
10170;SDS011;5127;50.922;6.988;2023-02-18T14:00:45;1.93;;;1.20;;
10170;SDS011;5127;50.922;6.988;2023-02-18T14:03:18;2.10;;;1.57;;
10170;SDS011;5127;50.922;6.988;2023-02-18T14:05:57;1.37;;;1.27;;
10170;SDS011;5127;50.922;6.988;2023-02-18T14:08:32;1.67;;;1.47;;
10170;SDS011;5127;50.922;6.988;2023-02-18T14:14:30;2.93;;;1.30;;
10170;SDS011;5127;50.922;6.988;2023-02-18T14:17:13;1.50;;;1.30;;
10170;SDS011;5127;50.922;6.988;2023-02-18T14:22:59;1.57;;;1.40;;
10170;SDS011;5127;50.922;6.988;2023-02-18T14:25:34;1.60;;;1.50;;
10170;SDS011;5127;50.922;6.988;2023-02-18T14:28:33;1.40;;;1.30;;
10170;SDS011;5127;50.922;6.988;2023-02-18T14:31:19;1.30;;;1.20;;
10170;SDS011;5127;50.922;6.988;2023-02-18T14:33:59;1.90;;;1.70;;
10170;SDS011;5127;50.922;6.988;2023-02-18T14:36:52;1.57;;;1.43;;
10170;SDS011;5127;50.922;6.988;2023-02-18T14:39:36;1.20;;;1.10;;
10170;SDS011;5127;50.922;6.988;2023-02-18T14:42:17;1.10;;;1.00;;
10170;SDS011;5127;50.922;6.988;2023-02-18T14:44:59;1.27;;;1.13;;
10170;SDS011;5127;50.922;6.988;2023-02-18T14:47:39;1.20;;;1.10;;
10170;SDS011;5127;50.922;6.988;2023-02-18T14:50:20;1.63;;;1.20;;
10170;SDS011;5127;50.922;6.988;2023-02-18T14:52:48;1.33;;;1.00;;
10170;SDS011;5127;50.922;6.988;2023-02-18T14:55:20;1.80;;;1.10;;
10170;SDS011;5127;50.922;6.988;2023-02-18T14:57:52;1.33;;;0.90;;
10170;SDS011;5127;50.922;6.988;2023-02-18T15:00:24;0.97;;;0.80;;
10170;SDS011;5127;50.922;6.988;2023-02-18T15:02:54;1.27;;;1.17;;
10170;SDS011;5127;50.922;6.988;2023-02-18T15:05:22;1.30;;;1.20;;
10170;SDS011;5127;50.922;6.988;2023-02-18T15:07:54;1.83;;;1.20;;
10170;SDS011;5127;50.922;6.988;2023-02-18T15:10:24;1.47;;;1.03;;
10170;SDS011;5127;50.922;6.988;2023-02-18T15:13:01;1.20;;;1.10;;
10170;SDS011;5127;50.922;6.988;2023-02-18T15:15:29;1.30;;;1.13;;
10170;SDS011;5127;50.922;6.988;2023-02-18T15:17:59;1.33;;;1.23;;
10170;SDS011;5127;50.922;6.988;2023-02-18T15:20:28;1.63;;;1.30;;
10170;SDS011;5127;50.922;6.988;2023-02-18T15:22:59;1.50;;;1.33;;
10170;SDS011;5127;50.922;6.988;2023-02-18T15:25:27;1.40;;;1.30;;
10170;SDS011;5127;50.922;6.988;2023-02-18T15:27:55;1.50;;;1.03;;
10170;SDS011;5127;50.922;6.988;2023-02-18T15:30:25;1.80;;;1.20;;
10170;SDS011;5127;50.922;6.988;2023-02-18T15:32:55;1.40;;;1.07;;
10170;SDS011;5127;50.922;6.988;2023-02-18T15:35:25;1.37;;;1.27;;
10170;SDS011;5127;50.922;6.988;2023-02-18T15:37:55;1.80;;;1.20;;